Estrela do Norte, Brazil
Current Conditions -  °F | °C
As of 9:35 PM on Saturday 22 Nov 2014 (Local Time) from SBDN Reporting Station
Scattered Clouds Scattered Clouds  
Wind Chill: 70°   Ceiling: Unl
Heat Index: 70°   Visibility: 6mi
Dew Point: 68°   Wind: 6mph
Humidity: 94%   Direction: 190°S
Pressure: 29.85"   Gusts: NA
Location:  22.49°S, 51.66°W
Report Text: SBDN 222335Z 19005KT 9999 SCT005 SCT011 21/20 Q1011
Loading
Personal Weather Stations






























Interactive Weather Map New forecast layout! Learn more

10-Day Weather Forecast

Advertisements
Track Severe Weather on mobile